createdAt,value
2018-12-01T00:01:38.100Z,-5.24
2018-12-01T00:06:32.156Z,-5.21
2018-12-01T00:11:26.468Z,-5.27
2018-12-01T00:16:20.027Z,-5.09
2018-12-01T00:21:13.353Z,-4.93
2018-12-01T00:26:06.893Z,-5.07
2018-12-01T00:31:00.261Z,-4.99
2018-12-01T00:35:53.688Z,-5.13
2018-12-01T00:40:47.544Z,-4.95
2018-12-01T00:45:41.082Z,-4.79
2018-12-01T00:50:34.711Z,-4.58
2018-12-01T00:55:29.097Z,-4.52
2018-12-01T01:00:24.065Z,-4.44
2018-12-01T01:05:17.617Z,-4.38
2018-12-01T01:10:11.393Z,-4.25
2018-12-01T01:15:06.138Z,-4.41
2018-12-01T01:19:59.617Z,-4.42
2018-12-01T01:24:53.083Z,-4.41
2018-12-01T01:29:46.589Z,-4.32
2018-12-01T01:34:40.041Z,-4.56
2018-12-01T01:39:33.429Z,-4.41
2018-12-01T01:44:27.020Z,-4.67
2018-12-01T01:49:20.367Z,-4.74
2018-12-01T01:54:13.848Z,-4.89
2018-12-01T01:59:07.360Z,-4.94
2018-12-01T02:04:00.750Z,-4.84
2018-12-01T02:08:54.196Z,-4.84
2018-12-01T02:13:47.752Z,-4.83
2018-12-01T02:18:41.303Z,-4.82
2018-12-01T02:23:34.769Z,-4.77
2018-12-01T02:28:28.617Z,-4.51
2018-12-01T02:33:22.075Z,-4.51
2018-12-01T02:38:15.452Z,-4.50
2018-12-01T02:43:09.043Z,-4.57
2018-12-01T02:48:02.693Z,-4.62
2018-12-01T02:52:59.998Z,-4.66
2018-12-01T02:57:53.911Z,-4.70
2018-12-01T03:02:47.728Z,-4.59
2018-12-01T03:07:41.764Z,-4.46
2018-12-01T03:12:35.459Z,-4.38
2018-12-01T03:17:28.901Z,-4.39
2018-12-01T03:22:22.561Z,-4.43
2018-12-01T03:27:15.981Z,-4.71
2018-12-01T03:32:09.485Z,-4.89
2018-12-01T03:37:02.788Z,-4.99
2018-12-01T03:41:56.296Z,-4.97
2018-12-01T03:46:49.709Z,-4.99
2018-12-01T03:51:43.361Z,-4.92
2018-12-01T03:56:36.768Z,-5.04
2018-12-01T04:01:30.161Z,-5.16
2018-12-01T04:06:23.533Z,-5.23
2018-12-01T04:11:17.918Z,-5.33
2018-12-01T04:16:12.421Z,-5.27
2018-12-01T04:21:06.658Z,-5.20
2018-12-01T04:26:00.026Z,-5.16
2018-12-01T04:30:54.133Z,-5.25
2018-12-01T04:35:47.931Z,-5.10
2018-12-01T04:40:41.552Z,-5.07
2018-12-01T04:45:35.056Z,-5.28
2018-12-01T04:50:28.712Z,-5.34
2018-12-01T04:55:22.062Z,-5.26
2018-12-01T05:00:17.779Z,-5.17
2018-12-01T05:05:15.373Z,-4.98
2018-12-01T05:10:11.197Z,-4.98
2018-12-01T05:15:06.344Z,-4.90
2018-12-01T05:19:59.739Z,-4.95
2018-12-01T05:24:54.129Z,-5.02
2018-12-01T05:29:47.558Z,-5.01
2018-12-01T05:34:41.100Z,-4.94
2018-12-01T05:39:34.692Z,-4.89
2018-12-01T05:44:28.000Z,-4.87
2018-12-01T05:49:21.520Z,-4.96
2018-12-01T05:54:14.904Z,-5.07
2018-12-01T05:59:08.430Z,-4.97
2018-12-01T06:04:02.532Z,-4.87
2018-12-01T06:08:57.012Z,-4.76
2018-12-01T06:13:50.398Z,-4.58
2018-12-01T06:18:43.947Z,-4.60
2018-12-01T06:23:37.321Z,-4.53
2018-12-01T06:28:31.788Z,-4.45
2018-12-01T06:33:25.206Z,-4.40
2018-12-01T06:38:19.011Z,-4.25
2018-12-01T06:43:12.677Z,-4.07
2018-12-01T06:48:06.182Z,-3.69
2018-12-01T06:53:00.088Z,-3.47
2018-12-01T06:57:53.979Z,-3.59
2018-12-01T07:02:47.948Z,-3.63
2018-12-01T07:07:41.381Z,-3.63
2018-12-01T07:12:35.081Z,-3.48
2018-12-01T07:17:28.540Z,-3.44
2018-12-01T07:22:21.948Z,-3.35
2018-12-01T07:27:15.531Z,-3.11
2018-12-01T07:32:08.852Z,-2.97
2018-12-01T07:37:02.193Z,-2.78
2018-12-01T07:41:55.508Z,-2.63
2018-12-01T07:46:48.877Z,-2.48
2018-12-01T07:51:42.188Z,-2.28
2018-12-01T07:56:35.680Z,-2.12
2018-12-01T08:01:28.989Z,-1.99
2018-12-01T08:06:22.673Z,-1.95
2018-12-01T08:11:16.873Z,-1.89
2018-12-01T08:16:11.630Z,-1.84
2018-12-01T08:21:05.319Z,-1.73
2018-12-01T08:25:58.817Z,-1.65
2018-12-01T08:30:52.562Z,-1.54
2018-12-01T08:35:48.567Z,-1.41
2018-12-01T08:40:42.786Z,-1.37
2018-12-01T08:45:36.254Z,-1.23
2018-12-01T08:50:29.810Z,-1.03
2018-12-01T08:55:24.451Z,-0.93
2018-12-01T09:00:24.015Z,-0.86
2018-12-01T09:05:17.579Z,-0.76
2018-12-01T09:10:11.180Z,-0.70
2018-12-01T09:15:07.377Z,-0.58
2018-12-01T09:20:01.021Z,-0.49
2018-12-01T09:24:55.101Z,-0.59
2018-12-01T09:29:48.885Z,-0.48
2018-12-01T09:34:42.882Z,-0.28
2018-12-01T09:39:37.643Z,-0.28
2018-12-01T09:44:31.583Z,-0.26
2018-12-01T09:49:24.869Z,-0.27
2018-12-01T09:54:18.184Z,-0.22
2018-12-01T09:59:11.951Z,-0.19
2018-12-01T10:04:06.225Z,-0.13
2018-12-01T10:08:59.787Z,-0.16
2018-12-01T10:13:53.236Z,-0.09
2018-12-01T10:18:46.984Z,-0.01
2018-12-01T10:23:40.464Z,0.17
2018-12-01T10:28:33.729Z,0.21
2018-12-01T10:33:26.951Z,0.26
2018-12-01T10:38:21.251Z,0.33
2018-12-01T10:43:14.606Z,0.25
2018-12-01T10:48:09.342Z,0.41
2018-12-01T10:53:02.611Z,0.56
2018-12-01T10:57:58.316Z,0.69
2018-12-01T11:02:55.786Z,0.87
2018-12-01T11:07:49.190Z,0.89
2018-12-01T11:12:42.585Z,0.99
2018-12-01T11:17:36.113Z,1.01
2018-12-01T11:22:29.957Z,1.07
2018-12-01T11:27:24.653Z,1.13
2018-12-01T11:32:18.533Z,1.26
2018-12-01T11:37:11.872Z,1.27
2018-12-01T11:42:05.648Z,1.30
2018-12-01T11:46:59.139Z,1.29
2018-12-01T11:51:53.774Z,1.47
2018-12-01T11:56:47.792Z,1.49
2018-12-01T12:01:41.697Z,1.49
2018-12-01T12:06:36.808Z,1.51
2018-12-01T12:11:30.558Z,1.60
2018-12-01T12:16:25.888Z,1.58
2018-12-01T12:21:19.304Z,1.63
2018-12-01T12:26:13.442Z,1.61
2018-12-01T12:31:08.035Z,1.63
2018-12-01T12:36:01.750Z,1.69
2018-12-01T12:40:55.266Z,1.62
2018-12-01T12:45:49.329Z,1.69
2018-12-01T12:50:43.920Z,1.65
2018-12-01T12:55:39.211Z,1.61
2018-12-01T13:00:33.599Z,1.69
2018-12-01T13:05:29.839Z,1.78
2018-12-01T13:10:24.567Z,1.82
2018-12-01T13:15:18.378Z,1.76
2018-12-01T13:20:17.084Z,1.81
2018-12-01T13:25:12.417Z,1.72
2018-12-01T13:30:10.194Z,1.78
2018-12-01T13:35:03.865Z,1.74
2018-12-01T13:39:57.143Z,1.70
2018-12-01T13:44:50.492Z,1.68
2018-12-01T13:49:43.875Z,1.63
2018-12-01T13:54:37.400Z,1.56
2018-12-01T13:59:31.752Z,1.47
2018-12-01T14:04:25.765Z,1.35
2018-12-01T14:09:19.141Z,1.27
2018-12-01T14:14:12.516Z,1.17
2018-12-01T14:19:06.104Z,1.04
2018-12-01T14:23:59.529Z,0.85
2018-12-01T14:28:52.979Z,0.75
2018-12-01T14:33:47.595Z,0.59
2018-12-01T14:38:44.691Z,0.54
2018-12-01T14:43:38.363Z,0.36
2018-12-01T14:48:32.042Z,0.29
2018-12-01T14:53:25.437Z,0.16
2018-12-01T14:58:18.830Z,0.07
2018-12-01T15:03:12.337Z,-0.04
2018-12-01T15:08:06.636Z,-0.17
2018-12-01T15:13:00.211Z,-0.21
2018-12-01T15:17:53.493Z,-0.36
2018-12-01T15:22:48.458Z,-0.59
2018-12-01T15:27:41.792Z,-0.74
2018-12-01T15:32:35.312Z,-0.79
2018-12-01T15:37:30.181Z,-0.88
2018-12-01T15:42:23.955Z,-0.87
2018-12-01T15:47:17.510Z,-1.13
2018-12-01T15:52:11.100Z,-1.11
2018-12-01T15:57:04.680Z,-1.20
2018-12-01T16:01:59.684Z,-1.29
2018-12-01T16:06:53.197Z,-1.25
2018-12-01T16:11:46.548Z,-1.42
2018-12-01T16:16:40.026Z,-1.45
2018-12-01T16:21:35.918Z,-1.48
2018-12-01T16:26:30.031Z,-1.42
2018-12-01T16:31:24.328Z,-1.43
2018-12-01T16:36:17.957Z,-1.47
2018-12-01T16:41:18.534Z,-1.41
2018-12-01T16:46:11.970Z,-1.16
2018-12-01T16:51:05.896Z,-1.09
2018-12-01T16:56:00.362Z,-1.09
2018-12-01T17:00:53.816Z,-1.08
2018-12-01T17:05:53.053Z,-1.02
2018-12-01T17:10:46.626Z,-0.93
2018-12-01T17:15:40.011Z,-0.99
2018-12-01T17:20:34.190Z,-1.03
2018-12-01T17:25:27.853Z,-0.99
2018-12-01T17:30:24.250Z,-0.97
2018-12-01T17:35:22.947Z,-0.89
2018-12-01T17:40:18.663Z,-0.89
2018-12-01T17:45:12.123Z,-0.88
2018-12-01T17:50:11.227Z,-1.00
2018-12-01T17:55:06.486Z,-0.99
2018-12-01T17:59:59.937Z,-1.08
2018-12-01T18:04:53.339Z,-1.07
2018-12-01T18:09:46.877Z,-1.18
2018-12-01T18:14:40.802Z,-1.13
2018-12-01T18:19:34.591Z,-1.21
2018-12-01T18:24:28.432Z,-1.16
2018-12-01T18:29:22.748Z,-1.17
2018-12-01T18:34:17.073Z,-1.24
2018-12-01T18:39:15.368Z,-1.28
2018-12-01T18:44:08.744Z,-1.35
2018-12-01T18:49:02.757Z,-1.35
2018-12-01T18:53:56.002Z,-1.47
2018-12-01T18:58:50.456Z,-1.44
2018-12-01T19:03:43.720Z,-1.41
2018-12-01T19:08:37.252Z,-1.42
2018-12-01T19:13:30.575Z,-1.49
2018-12-01T19:18:24.214Z,-1.41
2018-12-01T19:23:18.420Z,-1.52
2018-12-01T19:28:11.982Z,-1.51
2018-12-01T19:33:13.092Z,-1.65
2018-12-01T19:38:07.889Z,-1.60
2018-12-01T19:43:01.934Z,-1.66
2018-12-01T19:47:56.051Z,-1.80
2018-12-01T19:52:49.969Z,-1.77
2018-12-01T19:57:43.855Z,-1.82
2018-12-01T20:02:37.552Z,-1.82
2018-12-01T20:07:31.028Z,-1.76
2018-12-01T20:12:24.412Z,-1.71
2018-12-01T20:17:17.864Z,-1.57
2018-12-01T20:22:11.874Z,-1.63
2018-12-01T20:27:06.109Z,-1.64
2018-12-01T20:31:59.446Z,-1.58
2018-12-01T20:36:55.983Z,-1.51
2018-12-01T20:41:49.313Z,-1.62
2018-12-01T20:46:43.336Z,-1.55
2018-12-01T20:51:36.887Z,-1.57
2018-12-01T20:56:32.595Z,-1.54
2018-12-01T21:01:26.165Z,-1.64
2018-12-01T21:06:19.934Z,-1.51
2018-12-01T21:11:14.694Z,-1.61
2018-12-01T21:16:08.472Z,-1.58
2018-12-01T21:21:01.826Z,-1.51
2018-12-01T21:25:55.157Z,-1.58
2018-12-01T21:30:49.317Z,-1.63
2018-12-01T21:35:42.479Z,-1.47
2018-12-01T21:40:35.945Z,-1.52
2018-12-01T21:45:29.592Z,-1.68
2018-12-01T21:50:23.627Z,-1.66
2018-12-01T21:55:16.856Z,-1.73
2018-12-01T22:00:14.072Z,-1.88
2018-12-01T22:05:11.399Z,-1.93
2018-12-01T22:10:06.457Z,-1.94
2018-12-01T22:15:00.402Z,-2.04
2018-12-01T22:19:53.665Z,-1.97
2018-12-01T22:24:47.209Z,-1.93
2018-12-01T22:29:41.084Z,-1.96
2018-12-01T22:34:34.298Z,-1.91
2018-12-01T22:39:28.039Z,-1.73
2018-12-01T22:44:21.260Z,-1.87
2018-12-01T22:49:15.728Z,-1.87
2018-12-01T22:54:08.687Z,-1.81
2018-12-01T22:59:02.064Z,-1.72
2018-12-01T23:03:55.261Z,-1.61
2018-12-01T23:08:48.856Z,-1.63
2018-12-01T23:13:41.998Z,-1.48
2018-12-01T23:18:35.190Z,-1.36
2018-12-01T23:23:28.968Z,-1.44
2018-12-01T23:28:22.265Z,-1.27
2018-12-01T23:33:17.247Z,-1.23
2018-12-01T23:38:10.548Z,-1.27
2018-12-01T23:43:03.874Z,-1.27
2018-12-01T23:47:57.076Z,-1.28
2018-12-01T23:52:52.160Z,-1.35
2018-12-01T23:57:45.429Z,-1.33
